createdAt,value
2023-02-02T00:04:55.320Z,9.31
2023-02-02T00:09:56.801Z,9.14
2023-02-02T00:14:58.607Z,8.84
2023-02-02T00:20:00.079Z,9.25
2023-02-02T00:25:01.657Z,9.42
2023-02-02T00:30:03.552Z,9.25
2023-02-02T00:35:05.173Z,9.25
2023-02-02T00:40:07.237Z,9.36
2023-02-02T00:45:13.001Z,9.28
2023-02-02T00:50:20.648Z,9.30
2023-02-02T00:55:22.893Z,8.98
2023-02-02T01:00:26.218Z,8.92
2023-02-02T01:05:27.699Z,8.70
2023-02-02T01:10:29.243Z,9.05
2023-02-02T01:15:30.750Z,9.27
2023-02-02T01:20:32.310Z,9.18
2023-02-02T01:25:33.823Z,9.31
2023-02-02T01:30:35.404Z,9.33
2023-02-02T01:35:45.438Z,9.39
2023-02-02T01:40:49.074Z,9.44
2023-02-02T01:45:52.307Z,9.47
2023-02-02T01:50:59.355Z,9.10
2023-02-02T01:56:03.112Z,9.01
2023-02-02T02:01:05.863Z,9.25
2023-02-02T02:06:11.233Z,8.94
2023-02-02T02:11:14.195Z,8.71
2023-02-02T02:16:24.793Z,9.23
2023-02-02T02:22:05.930Z,9.24
2023-02-02T02:27:39.615Z,9.34
2023-02-02T02:32:55.701Z,8.74
2023-02-02T02:38:52.892Z,8.94
2023-02-02T02:44:08.236Z,9.05
2023-02-02T02:49:11.940Z,9.00
2023-02-02T02:54:17.867Z,9.12
2023-02-02T02:59:35.993Z,8.99
2023-02-02T03:04:53.554Z,8.94
2023-02-02T03:09:58.379Z,8.84
2023-02-02T03:15:04.155Z,8.74
2023-02-02T03:20:06.284Z,8.65
2023-02-02T03:25:08.591Z,8.52
2023-02-02T03:30:12.948Z,8.48
2023-02-02T03:35:14.510Z,8.41
2023-02-02T03:40:16.147Z,8.34
2023-02-02T03:45:17.570Z,8.43
2023-02-02T03:50:19.069Z,8.52
2023-02-02T03:55:20.940Z,8.69
2023-02-02T04:00:23.009Z,8.46
2023-02-02T04:05:24.804Z,8.47
2023-02-02T04:10:26.461Z,8.48
2023-02-02T04:15:27.988Z,8.02
2023-02-02T04:20:29.581Z,8.00
2023-02-02T04:25:31.085Z,8.20
2023-02-02T04:30:32.606Z,8.36
2023-02-02T04:35:34.092Z,8.00
2023-02-02T04:40:39.626Z,7.80
2023-02-02T04:45:41.163Z,8.12
2023-02-02T04:50:42.655Z,7.94
2023-02-02T04:55:44.176Z,7.84
2023-02-02T05:00:45.798Z,7.80
2023-02-02T05:05:47.291Z,7.93
2023-02-02T05:10:48.727Z,7.85
2023-02-02T05:15:50.166Z,7.94
2023-02-02T05:20:52.806Z,8.16
2023-02-02T05:25:54.941Z,8.23
2023-02-02T05:30:56.541Z,8.24
2023-02-02T05:35:58.012Z,8.11
2023-02-02T05:41:00.196Z,8.25
2023-02-02T05:46:02.495Z,8.11
2023-02-02T05:51:14.291Z,8.32
2023-02-02T05:56:16.043Z,8.20
2023-02-02T06:01:18.893Z,8.06
2023-02-02T06:06:20.449Z,7.78
2023-02-02T06:11:22.138Z,7.98
2023-02-02T06:16:24.438Z,8.18
2023-02-02T06:21:25.964Z,8.11
2023-02-02T06:26:27.646Z,8.27
2023-02-02T06:31:29.293Z,8.52
2023-02-02T06:36:30.924Z,8.52
2023-02-02T06:41:32.346Z,8.38
2023-02-02T06:46:33.860Z,8.39
2023-02-02T06:51:35.354Z,8.64
2023-02-02T06:56:36.819Z,8.63
2023-02-02T07:01:38.437Z,8.63
2023-02-02T07:06:40.078Z,8.40
2023-02-02T07:11:43.415Z,8.32
2023-02-02T07:16:46.958Z,8.34
2023-02-02T07:21:48.455Z,8.39
2023-02-02T07:26:49.936Z,8.51
2023-02-02T07:31:51.500Z,8.49
2023-02-02T07:36:52.967Z,8.42
2023-02-02T07:41:54.454Z,8.29
2023-02-02T07:47:06.038Z,8.40
2023-02-02T07:52:07.576Z,8.49
2023-02-02T07:57:09.090Z,8.77
2023-02-02T08:02:10.715Z,8.64
2023-02-02T08:07:14.232Z,8.68
2023-02-02T08:12:15.789Z,8.62
2023-02-02T08:17:17.299Z,8.86
2023-02-02T08:22:20.329Z,8.82
2023-02-02T08:27:21.966Z,8.67
2023-02-02T08:32:23.699Z,8.69
2023-02-02T08:37:25.180Z,8.55
2023-02-02T08:42:26.610Z,8.64
2023-02-02T08:47:31.165Z,8.63
2023-02-02T08:52:32.993Z,8.81
2023-02-02T08:57:34.512Z,8.95
2023-02-02T09:02:36.089Z,9.00
2023-02-02T09:07:37.672Z,8.88
2023-02-02T09:12:39.127Z,9.11
2023-02-02T09:17:40.635Z,9.09
2023-02-02T09:22:42.131Z,9.00
2023-02-02T09:27:43.614Z,9.13
2023-02-02T09:32:45.070Z,9.16
2023-02-02T09:37:46.593Z,9.22
2023-02-02T09:42:48.051Z,9.35
2023-02-02T09:47:55.358Z,9.47
2023-02-02T09:53:18.044Z,9.53
2023-02-02T09:58:28.364Z,9.45
2023-02-02T10:03:55.031Z,9.60
2023-02-02T10:09:02.725Z,9.59
2023-02-02T10:14:14.084Z,9.74
2023-02-02T10:19:16.046Z,9.88
2023-02-02T10:24:26.213Z,9.78
2023-02-02T10:29:55.659Z,9.75
2023-02-02T10:35:07.011Z,9.62
2023-02-02T10:40:31.469Z,9.62
2023-02-02T10:45:33.386Z,9.78
2023-02-02T10:50:35.185Z,9.77
2023-02-02T10:55:42.498Z,9.64
2023-02-02T11:00:43.886Z,9.74
2023-02-02T11:05:46.275Z,9.84
2023-02-02T11:10:52.242Z,9.93
2023-02-02T11:16:16.656Z,10.02
2023-02-02T11:21:22.430Z,10.03
2023-02-02T11:26:25.532Z,10.00
2023-02-02T11:31:37.643Z,10.07
2023-02-02T11:36:39.225Z,10.10
2023-02-02T11:41:40.839Z,10.16
2023-02-02T11:46:42.782Z,10.05
2023-02-02T11:51:59.669Z,10.12
2023-02-02T11:57:04.753Z,10.36
2023-02-02T12:02:27.945Z,10.26
2023-02-02T12:07:32.762Z,10.27
2023-02-02T12:12:46.787Z,10.31
2023-02-02T12:17:48.663Z,10.44
2023-02-02T12:23:04.203Z,10.26
2023-02-02T12:28:24.429Z,10.42
2023-02-02T12:33:44.754Z,10.49
2023-02-02T12:39:05.020Z,10.53
2023-02-02T12:44:28.937Z,10.56
2023-02-02T12:49:48.177Z,10.50
2023-02-02T12:55:27.235Z,10.39
2023-02-02T13:00:56.026Z,10.36
2023-02-02T13:06:27.484Z,10.48
2023-02-02T13:11:51.775Z,10.37
2023-02-02T13:17:14.156Z,10.34
2023-02-02T13:22:25.842Z,10.42
2023-02-02T13:27:30.413Z,10.56
2023-02-02T13:32:39.537Z,10.60
2023-02-02T13:37:53.238Z,10.65
2023-02-02T13:43:11.599Z,10.52
2023-02-02T13:48:12.943Z,10.54
2023-02-02T13:53:41.924Z,10.54
2023-02-02T13:59:12.951Z,10.56
2023-02-02T14:04:23.356Z,10.57
2023-02-02T14:09:27.955Z,10.56
2023-02-02T14:14:30.033Z,10.53
2023-02-02T14:19:34.269Z,10.43
2023-02-02T14:24:35.626Z,10.60
2023-02-02T14:29:58.078Z,10.52
2023-02-02T14:35:12.559Z,10.62
2023-02-02T14:40:29.834Z,10.73
2023-02-02T14:45:42.054Z,10.70
2023-02-02T14:50:54.521Z,10.66
2023-02-02T14:56:11.269Z,10.70
2023-02-02T15:01:18.929Z,10.56
2023-02-02T15:06:32.961Z,10.56
2023-02-02T15:12:01.412Z,10.57
2023-02-02T15:17:07.791Z,10.55
2023-02-02T15:22:21.301Z,10.71
2023-02-02T15:27:23.498Z,10.61
2023-02-02T15:32:27.074Z,10.55
2023-02-02T15:37:40.405Z,10.56
2023-02-02T15:42:49.887Z,10.77
2023-02-02T15:47:51.388Z,10.71
2023-02-02T15:52:54.832Z,10.54
2023-02-02T15:57:56.353Z,10.47
2023-02-02T16:03:00.890Z,10.23
2023-02-02T16:08:06.881Z,10.21
2023-02-02T16:13:22.823Z,10.19
2023-02-02T16:18:24.437Z,10.35
2023-02-02T16:23:33.514Z,10.24
2023-02-02T16:28:35.486Z,10.10
2023-02-02T16:33:40.657Z,10.70
2023-02-02T16:38:43.120Z,10.24
2023-02-02T16:43:44.538Z,10.57
2023-02-02T16:49:14.100Z,10.49
2023-02-02T16:54:20.506Z,10.44
2023-02-02T16:59:25.461Z,10.43
2023-02-02T17:04:30.500Z,10.32
2023-02-02T17:09:37.336Z,10.26
2023-02-02T17:14:51.180Z,10.20
2023-02-02T17:19:53.185Z,9.84
2023-02-02T17:24:54.667Z,9.90
2023-02-02T17:29:56.793Z,10.10
2023-02-02T17:34:58.237Z,10.15
2023-02-02T17:39:59.666Z,10.23
2023-02-02T17:45:01.066Z,10.22
2023-02-02T17:50:02.475Z,10.23
2023-02-02T17:55:12.464Z,10.42
2023-02-02T18:00:15.778Z,10.63
2023-02-02T18:05:18.795Z,10.27
2023-02-02T18:10:20.246Z,10.22
2023-02-02T18:15:21.680Z,10.18
2023-02-02T18:20:23.526Z,10.22
2023-02-02T18:25:25.765Z,10.17
2023-02-02T18:30:27.551Z,10.21
2023-02-02T18:35:29.111Z,10.12
2023-02-02T18:40:30.560Z,10.30
2023-02-02T18:45:32.012Z,10.36
2023-02-02T18:50:33.431Z,9.93
2023-02-02T18:55:37.173Z,9.96
2023-02-02T19:00:38.720Z,9.91
2023-02-02T19:05:40.312Z,9.96
2023-02-02T19:10:41.756Z,9.97
2023-02-02T19:15:43.500Z,10.09
2023-02-02T19:20:45.713Z,10.15
2023-02-02T19:25:51.517Z,10.20
2023-02-02T19:30:55.180Z,10.25
2023-02-02T19:35:56.644Z,10.16
2023-02-02T19:41:00.508Z,10.00
2023-02-02T19:46:01.968Z,9.97
2023-02-02T19:51:27.622Z,10.10
2023-02-02T19:56:39.092Z,9.86
2023-02-02T20:01:40.835Z,10.20
2023-02-02T20:06:56.636Z,10.25
2023-02-02T20:11:59.829Z,10.37
2023-02-02T20:17:07.081Z,10.31
2023-02-02T20:22:24.612Z,10.42
2023-02-02T20:27:28.117Z,10.53
2023-02-02T20:32:40.735Z,10.43
2023-02-02T20:37:42.581Z,10.15
2023-02-02T20:42:44.081Z,10.21
2023-02-02T20:47:45.716Z,10.10
2023-02-02T20:52:47.647Z,10.19
2023-02-02T20:57:49.040Z,10.21
2023-02-02T21:02:50.446Z,10.02
2023-02-02T21:07:51.885Z,10.06
2023-02-02T21:12:53.322Z,10.22
2023-02-02T21:17:54.723Z,10.17
2023-02-02T21:22:56.265Z,10.07
2023-02-02T21:27:58.477Z,10.16
2023-02-02T21:32:59.878Z,10.36
2023-02-02T21:38:10.597Z,10.25
2023-02-02T21:43:15.901Z,10.19
2023-02-02T21:48:27.365Z,10.18
2023-02-02T21:53:28.834Z,9.83
2023-02-02T21:58:37.535Z,10.02
2023-02-02T22:03:38.974Z,9.60
2023-02-02T22:08:40.767Z,9.72
2023-02-02T22:13:42.177Z,9.79
2023-02-02T22:18:43.577Z,9.77
2023-02-02T22:23:45.507Z,9.93
2023-02-02T22:28:46.943Z,9.81
2023-02-02T22:33:48.362Z,9.66
2023-02-02T22:38:49.886Z,9.47
2023-02-02T22:43:51.315Z,9.54
2023-02-02T22:48:52.850Z,9.65
2023-02-02T22:53:54.245Z,9.79
2023-02-02T22:58:55.687Z,9.62
2023-02-02T23:03:57.159Z,9.55
2023-02-02T23:08:58.594Z,9.48
2023-02-02T23:13:59.985Z,9.48
2023-02-02T23:19:01.379Z,9.59
2023-02-02T23:24:02.788Z,9.76
2023-02-02T23:29:04.229Z,9.89
2023-02-02T23:34:05.647Z,9.95
2023-02-02T23:39:07.076Z,9.87
2023-02-02T23:44:08.519Z,9.97
2023-02-02T23:49:10.006Z,10.07
2023-02-02T23:54:13.303Z,10.05
2023-02-02T23:59:14.730Z,10.10
